Pagina principale
METAR-TAF:

METAR-TAF

Aeroporti :

Aeroporto di Palma di Maiorca

Palma di Maiorca, Spagna

latitudine: 39-33N, longitudine: 002-44E, altezza: 4 m

Osservazione

Il bollettino è stato emesso 28 minuti fa, alle 06:00 UTC
Vento 2 kt da direzioni variabili
Temperature 4°C
Umidità 100%
Pressione 1028 hPa
Visibilità 10 km o più
Poco nuvoloso ad un'altezza di 3000 ft

METAR: LEPA 210600Z VRB02KT 9999 FEW030 04/04 Q1028 NOSIG

Ora: 07:28 (06:28 UTC)

Previsione

Il bollettino è stato emesso 1 ora e 28 minuti fa, alle 05:00 UTC
Previsione valida dal 21 alle 06 UTC al 22 alle 06 UTC
Vento 6 kt da nord-est
Visibilità 10 km o più
Poco nuvoloso ad un'altezza di 2500 ft
Evoluzione graduale
dal 21 alle 10 UTC al 21 alle 12 UTC
Vento 10 kt da sud-ovest
Evoluzione graduale
dal 21 alle 18 UTC al 21 alle 20 UTC
Vento 6 kt da nord-est

TAF: LEPA 210500Z 2106/2206 04006KT 9999 FEW025 TX17/2112Z TN03/2106Z BECMG 2110/2112 22010KT BECMG 2118/2120 04006KT

Osservazioni e previsioni meteorologiche di più di 4000 aeroporti (messaggi METAR e TAF).

Le stazioni disponibili sono rappresentate dai dischi gialli e rossi sulla carta.

Puntare il mouse per vedere il nome della stazione.

Clicca sopra per visualizzare le osservazioni e previsioni meteorologiche.

Per cambiare la mappa : fare clic sui pulsanti verdi con una croce nera per ingrandire, il pulsante verde con un trattino per diminuire, o sulla freccia verde per le mappe adiacenti.


METAR-TAF: